Time;durP1;ratioP1;P1;durP2;ratioP2;P2;SDS_P1;SDS_P2;PMS_P1;PMS_P2;Temp;Humidity;BMP_temperature;BMP_pressure;BME280_temperature;BME280_humidity;BME280_pressure;Samples;Min_cycle;Max_cycle;Signal;HPM_P1;HPM_P2
2021/12/29 00:00:27;;;;;;;22.60;8.00;;;;;;;;;;5023564;28;20190;-69
2021/12/29 00:02:55;;;;;;;18.20;7.43;;;;;;;;;;5003465;28;20222;-69
2021/12/29 00:05:22;;;;;;;21.00;7.47;;;;;;;;;;5022046;28;20277;-69
2021/12/29 00:07:48;;;;;;;18.27;7.03;;;;;;;;;;5015948;28;20853;-69
2021/12/29 00:10:15;;;;;;;19.73;7.50;;;;;;;;;;5022809;28;20220;-69
2021/12/29 00:12:45;;;;;;;17.97;7.33;;;;;;;;;;5002950;28;20187;-68
2021/12/29 00:15:13;;;;;;;17.83;6.93;;;;;;;;;;5017964;28;20657;-69
2021/12/29 00:17:42;;;;;;;19.00;7.17;;;;;;;;;;5015339;28;20232;-69
2021/12/29 00:20:08;;;;;;;21.00;7.53;;;;;;;;;;5021004;28;20252;-70
2021/12/29 00:22:34;;;;;;;18.67;6.83;;;;;;;;;;5007942;28;20278;-70
2021/12/29 00:24:59;;;;;;;18.93;6.10;;;;;;;;;;5022435;28;20293;-69
2021/12/29 00:27:24;;;;;;;17.63;6.67;;;;;;;;;;5016901;28;20209;-70
2021/12/29 00:29:50;;;;;;;19.50;6.30;;;;;;;;;;5015241;28;20554;-69
2021/12/29 00:32:15;;;;;;;16.87;5.57;;;;;;;;;;5017759;28;20258;-70
2021/12/29 00:34:41;;;;;;;19.57;5.13;;;;;;;;;;5010352;28;20269;-70
2021/12/29 00:37:06;;;;;;;16.13;5.07;;;;;;;;;;5024294;28;20582;-70
2021/12/29 00:39:31;;;;;;;15.03;5.13;;;;;;;;;;5009733;28;20277;-69
2021/12/29 00:41:57;;;;;;;16.10;6.23;;;;;;;;;;5020290;28;20178;-69
2021/12/29 00:44:22;;;;;;;14.47;4.90;;;;;;;;;;5012188;28;20186;-69
2021/12/29 00:46:52;;;;;;;12.80;5.30;;;;;;;;;;5022428;28;20504;-69
2021/12/29 00:49:18;;;;;;;16.03;4.87;;;;;;;;;;5013555;28;20273;-69
2021/12/29 00:51:44;;;;;;;12.57;4.83;;;;;;;;;;5022247;28;20342;-69
2021/12/29 00:54:09;;;;;;;11.73;4.60;;;;;;;;;;5004090;28;20179;-70
2021/12/29 00:56:35;;;;;;;12.80;5.10;;;;;;;;;;5015757;28;20300;-69
2021/12/29 00:59:00;;;;;;;15.27;5.70;;;;;;;;;;5010829;28;20639;-69
2021/12/29 01:01:25;;;;;;;12.47;5.30;;;;;;;;;;5024838;28;20541;-69
2021/12/29 01:03:51;;;;;;;14.27;5.37;;;;;;;;;;5018518;28;20210;-69
2021/12/29 01:06:16;;;;;;;15.60;5.80;;;;;;;;;;5012902;28;20187;-69
2021/12/29 01:08:41;;;;;;;19.53;5.80;;;;;;;;;;5020632;28;20194;-69
2021/12/29 01:11:07;;;;;;;15.87;5.60;;;;;;;;;;5016166;28;20309;-69
2021/12/29 01:13:34;;;;;;;17.30;5.80;;;;;;;;;;5013588;28;20186;-69
2021/12/29 01:18:36;;;;;;;15.97;5.63;;;;;;;;;;5026057;28;20185;-69
2021/12/29 01:21:01;;;;;;;13.77;5.03;;;;;;;;;;5011618;28;20178;-69
2021/12/29 01:23:26;;;;;;;15.03;6.23;;;;;;;;;;5020223;28;20190;-69
2021/12/29 01:25:52;;;;;;;14.80;5.87;;;;;;;;;;5013791;28;20604;-69
2021/12/29 01:28:18;;;;;;;16.80;5.80;;;;;;;;;;5013836;28;21989;-69
2021/12/29 01:30:44;;;;;;;19.27;6.23;;;;;;;;;;5013480;28;20202;-69
2021/12/29 01:33:10;;;;;;;19.03;6.10;;;;;;;;;;5021784;28;20269;-69
2021/12/29 01:35:37;;;;;;;17.60;6.30;;;;;;;;;;5011282;28;20689;-69
2021/12/29 01:38:04;;;;;;;17.03;6.53;;;;;;;;;;5024316;28;20302;-69
2021/12/29 01:40:31;;;;;;;18.47;6.40;;;;;;;;;;5018704;28;20178;-70
2021/12/29 01:42:57;;;;;;;17.73;6.63;;;;;;;;;;5014947;28;20332;-70
2021/12/29 01:45:23;;;;;;;21.43;7.47;;;;;;;;;;5016225;28;20547;-70
2021/12/29 01:47:49;;;;;;;18.27;6.83;;;;;;;;;;5011758;28;20190;-70
2021/12/29 01:50:16;;;;;;;19.23;7.57;;;;;;;;;;5016114;28;20686;-70
2021/12/29 01:52:42;;;;;;;18.97;7.77;;;;;;;;;;5009938;28;20194;-70
2021/12/29 01:55:14;;;;;;;18.83;7.70;;;;;;;;;;5012453;28;20190;-70
2021/12/29 01:57:41;;;;;;;20.47;7.83;;;;;;;;;;5011013;28;20213;-70
2021/12/29 02:00:12;;;;;;;29.53;9.07;;;;;;;;;;5019249;28;20182;-70
2021/12/29 02:02:38;;;;;;;23.17;8.87;;;;;;;;;;5011578;28;20205;-70
2021/12/29 02:05:04;;;;;;;23.30;8.50;;;;;;;;;;5016126;28;20220;-70
2021/12/29 02:07:30;;;;;;;17.40;7.77;;;;;;;;;;5011958;28;20175;-70
2021/12/29 02:09:55;;;;;;;18.13;7.67;;;;;;;;;;5018937;28;20186;-70
2021/12/29 02:12:20;;;;;;;17.90;7.70;;;;;;;;;;5008614;28;20213;-69
2021/12/29 02:14:46;;;;;;;17.47;7.13;;;;;;;;;;5018290;28;20524;-69
2021/12/29 02:17:13;;;;;;;14.63;6.90;;;;;;;;;;5020618;28;20602;-69
2021/12/29 02:19:46;;;;;;;11.30;5.97;;;;;;;;;;5012057;28;20193;-69
2021/12/29 02:22:24;;;;;;;15.50;6.27;;;;;;;;;;5018802;28;20178;-70
2021/12/29 02:24:55;;;;;;;11.57;6.07;;;;;;;;;;5009600;28;20681;-69
2021/12/29 02:27:21;;;;;;;12.47;7.23;;;;;;;;;;5016967;28;20179;-69
2021/12/29 02:29:47;;;;;;;16.47;8.77;;;;;;;;;;5014043;28;20197;-68
2021/12/29 02:32:14;;;;;;;18.00;9.97;;;;;;;;;;5023708;28;20191;-68
2021/12/29 02:34:40;;;;;;;15.77;9.07;;;;;;;;;;5010090;28;20194;-68
2021/12/29 02:37:07;;;;;;;18.80;10.90;;;;;;;;;;5019307;28;20535;-68
2021/12/29 02:39:35;;;;;;;20.33;11.37;;;;;;;;;;5012478;28;20194;-68
2021/12/29 02:42:04;;;;;;;21.97;12.20;;;;;;;;;;5022565;28;20189;-69
2021/12/29 02:44:30;;;;;;;21.47;11.37;;;;;;;;;;5012463;28;20222;-69
2021/12/29 02:46:58;;;;;;;26.53;13.83;;;;;;;;;;5017818;28;20210;-68
2021/12/29 02:49:25;;;;;;;30.97;15.27;;;;;;;;;;5011333;28;20206;-69
2021/12/29 02:51:50;;;;;;;30.00;14.47;;;;;;;;;;5021443;28;20221;-69
2021/12/29 02:54:17;;;;;;;33.53;15.70;;;;;;;;;;5021608;28;20744;-69
2021/12/29 02:56:47;;;;;;;33.53;15.50;;;;;;;;;;5005347;28;20693;-68
2021/12/29 02:59:12;;;;;;;33.20;16.50;;;;;;;;;;5022246;28;20186;-68
2021/12/29 03:01:37;;;;;;;34.57;17.03;;;;;;;;;;5013276;28;20564;-68
2021/12/29 03:04:05;;;;;;;38.93;17.30;;;;;;;;;;5024157;28;20209;-69
2021/12/29 03:06:30;;;;;;;39.13;18.13;;;;;;;;;;5018812;28;20212;-68
2021/12/29 03:08:56;;;;;;;40.70;18.33;;;;;;;;;;5025111;28;20681;-68
2021/12/29 03:11:22;;;;;;;41.33;17.83;;;;;;;;;;5011284;28;20237;-68
2021/12/29 03:13:47;;;;;;;43.70;17.90;;;;;;;;;;5020266;28;20614;-68
2021/12/29 03:16:13;;;;;;;33.73;17.27;;;;;;;;;;5016537;28;20192;-69
2021/12/29 03:18:39;;;;;;;40.77;18.47;;;;;;;;;;5023950;28;20186;-68
2021/12/29 03:21:04;;;;;;;38.27;18.43;;;;;;;;;;5010361;28;20257;-68
2021/12/29 03:23:31;;;;;;;39.33;16.87;;;;;;;;;;5024637;28;20528;-68
2021/12/29 03:25:56;;;;;;;36.70;17.63;;;;;;;;;;5022830;28;20197;-68
2021/12/29 03:28:24;;;;;;;32.67;16.40;;;;;;;;;;5014431;28;20352;-68
2021/12/29 03:30:53;;;;;;;38.00;18.02;;;;;;;;;;5022790;28;20652;-68
2021/12/29 03:33:19;;;;;;;35.70;18.35;;;;;;;;;;5006380;28;20179;-68
2021/12/29 03:35:48;;;;;;;31.88;17.10;;;;;;;;;;5019250;28;20625;-68
2021/12/29 03:38:21;;;;;;;36.33;17.70;;;;;;;;;;5015517;28;20502;-68
2021/12/29 03:40:46;;;;;;;39.25;18.05;;;;;;;;;;5020281;28;20465;-68
2021/12/29 03:43:12;;;;;;;35.17;17.17;;;;;;;;;;5014046;28;20193;-68
2021/12/29 03:45:40;;;;;;;33.13;18.05;;;;;;;;;;5019927;28;20182;-67
2021/12/29 03:48:07;;;;;;;31.73;17.48;;;;;;;;;;5007090;28;20198;-67
2021/12/29 03:50:32;;;;;;;34.00;17.58;;;;;;;;;;5024290;28;20247;-67
2021/12/29 03:52:58;;;;;;;31.38;16.90;;;;;;;;;;5014602;28;20682;-67
2021/12/29 03:55:23;;;;;;;33.53;16.63;;;;;;;;;;5024566;28;20243;-67
2021/12/29 03:57:49;;;;;;;33.05;16.63;;;;;;;;;;5016159;28;20274;-67
2021/12/29 04:00:16;;;;;;;33.08;17.80;;;;;;;;;;5021032;28;20191;-67
2021/12/29 04:02:42;;;;;;;27.27;15.90;;;;;;;;;;5022532;28;20220;-67
2021/12/29 04:05:10;;;;;;;27.13;16.07;;;;;;;;;;5015584;28;20190;-67
2021/12/29 04:07:36;;;;;;;24.73;14.00;;;;;;;;;;5018101;28;20188;-68
2021/12/29 04:10:02;;;;;;;25.17;14.47;;;;;;;;;;5015963;28;20674;-67
2021/12/29 04:12:28;;;;;;;34.38;15.70;;;;;;;;;;5023623;28;20207;-67
2021/12/29 04:14:53;;;;;;;26.88;13.48;;;;;;;;;;5014206;28;20190;-67
2021/12/29 04:17:25;;;;;;;25.17;14.03;;;;;;;;;;5023895;28;20186;-67
2021/12/29 04:20:54;;;;;;;23.38;13.88;;;;;;;;;;5007703;28;20582;-67
2021/12/29 04:22:47;;;;;;;25.17;13.55;;;;;;;;;;5014189;28;20328;-67
2021/12/29 04:25:13;;;;;;;23.88;13.82;;;;;;;;;;5009238;28;20240;-67
2021/12/29 04:27:38;;;;;;;24.90;13.80;;;;;;;;;;5016391;28;20186;-67
2021/12/29 04:30:04;;;;;;;20.83;12.93;;;;;;;;;;5009594;28;20275;-67
2021/12/29 04:32:29;;;;;;;25.27;12.82;;;;;;;;;;5019508;28;20280;-67
2021/12/29 04:34:55;;;;;;;19.63;11.98;;;;;;;;;;5013024;28;21181;-67
2021/12/29 04:37:20;;;;;;;20.73;12.27;;;;;;;;;;5025879;28;20186;-67
2021/12/29 04:39:45;;;;;;;20.23;11.60;;;;;;;;;;5019036;28;20737;-67
2021/12/29 04:42:11;;;;;;;18.77;11.15;;;;;;;;;;5016279;28;20190;-67
2021/12/29 04:44:36;;;;;;;22.70;10.93;;;;;;;;;;5008934;28;20241;-67
2021/12/29 04:47:02;;;;;;;18.42;10.40;;;;;;;;;;5013527;28;20221;-67
2021/12/29 04:49:39;;;;;;;19.27;11.07;;;;;;;;;;5025485;28;20608;-67
2021/12/29 04:52:04;;;;;;;18.20;10.32;;;;;;;;;;5011336;28;20256;-67
2021/12/29 04:54:30;;;;;;;18.83;10.33;;;;;;;;;;5014022;28;20195;-67
2021/12/29 04:56:56;;;;;;;20.63;10.73;;;;;;;;;;5013807;28;20186;-67
2021/12/29 04:59:23;;;;;;;18.83;10.57;;;;;;;;;;5026393;28;20711;-67
2021/12/29 05:01:49;;;;;;;19.70;10.17;;;;;;;;;;5009859;28;20183;-67
2021/12/29 05:04:22;;;;;;;19.87;10.27;;;;;;;;;;5025328;28;20190;-67
2021/12/29 05:09:32;;;;;;;17.30;9.40;;;;;;;;;;5012369;28;20275;-67
2021/12/29 05:12:00;;;;;;;16.90;8.87;;;;;;;;;;5008290;28;20289;-67
2021/12/29 05:14:25;;;;;;;20.23;9.80;;;;;;;;;;5013548;28;20197;-67
2021/12/29 05:16:51;;;;;;;17.63;9.17;;;;;;;;;;5005462;28;20491;-67
2021/12/29 05:19:16;;;;;;;23.40;10.47;;;;;;;;;;5012933;28;20558;-67
2021/12/29 05:21:41;;;;;;;17.23;9.77;;;;;;;;;;5013619;28;20240;-67
2021/12/29 05:24:07;;;;;;;20.00;9.17;;;;;;;;;;5010066;28;20247;-67
2021/12/29 05:26:33;;;;;;;25.07;9.60;;;;;;;;;;5017002;28;20186;-67
2021/12/29 05:28:58;;;;;;;25.47;9.90;;;;;;;;;;5008233;28;20185;-67
2021/12/29 05:31:25;;;;;;;25.15;9.77;;;;;;;;;;5012710;28;20305;-67
2021/12/29 05:33:50;;;;;;;28.95;9.93;;;;;;;;;;5009074;28;20194;-67
2021/12/29 05:36:16;;;;;;;21.17;9.40;;;;;;;;;;5016711;28;20396;-67
2021/12/29 05:38:41;;;;;;;20.60;9.00;;;;;;;;;;5014857;28;20199;-67
2021/12/29 05:41:06;;;;;;;24.38;9.90;;;;;;;;;;5009713;28;20175;-67
2021/12/29 05:43:32;;;;;;;29.85;9.20;;;;;;;;;;5012523;28;20284;-67
2021/12/29 05:45:57;;;;;;;22.25;8.73;;;;;;;;;;5021723;28;20189;-67
2021/12/29 05:48:22;;;;;;;27.47;8.90;;;;;;;;;;5012599;28;20213;-67
2021/12/29 05:50:48;;;;;;;23.02;8.70;;;;;;;;;;5012165;28;20697;-67
2021/12/29 05:53:13;;;;;;;22.87;8.40;;;;;;;;;;5017975;28;20197;-67
2021/12/29 05:55:41;;;;;;;18.60;7.70;;;;;;;;;;5005364;28;20776;-67
2021/12/29 05:58:07;;;;;;;19.13;7.77;;;;;;;;;;5016868;28;20218;-67
2021/12/29 06:00:33;;;;;;;27.30;8.80;;;;;;;;;;5002495;28;20642;-67
2021/12/29 06:02:58;;;;;;;19.97;7.17;;;;;;;;;;5019288;28;20205;-67
2021/12/29 06:05:24;;;;;;;20.00;7.73;;;;;;;;;;5014471;28;20193;-67
2021/12/29 06:07:49;;;;;;;20.70;7.73;;;;;;;;;;5019599;28;20213;-67
2021/12/29 06:10:15;;;;;;;22.03;7.53;;;;;;;;;;5007655;28;20688;-67
2021/12/29 06:12:41;;;;;;;21.23;7.57;;;;;;;;;;5018760;28;20228;-67
2021/12/29 06:15:08;;;;;;;19.00;7.10;;;;;;;;;;5009190;28;20201;-67
2021/12/29 06:17:34;;;;;;;22.50;7.07;;;;;;;;;;5016891;28;20621;-67
2021/12/29 06:19:59;;;;;;;15.27;6.93;;;;;;;;;;5012475;28;20235;-67
2021/12/29 06:22:25;;;;;;;17.20;7.43;;;;;;;;;;5015491;28;20304;-67
2021/12/29 06:24:53;;;;;;;19.63;7.27;;;;;;;;;;5014675;28;20190;-68
2021/12/29 06:27:23;;;;;;;21.60;7.53;;;;;;;;;;5010726;28;20825;-67
2021/12/29 06:29:49;;;;;;;20.83;6.83;;;;;;;;;;5021400;28;20232;-67
2021/12/29 06:32:15;;;;;;;23.27;8.20;;;;;;;;;;5010612;28;20210;-67
2021/12/29 06:34:40;;;;;;;23.23;7.60;;;;;;;;;;5017271;28;20814;-67
2021/12/29 06:37:08;;;;;;;31.93;8.73;;;;;;;;;;5023485;28;20182;-68
2021/12/29 06:39:37;;;;;;;29.53;9.20;;;;;;;;;;5021589;28;20217;-67
2021/12/29 06:42:03;;;;;;;21.73;8.47;;;;;;;;;;5011706;28;20239;-67
2021/12/29 06:44:28;;;;;;;35.00;9.47;;;;;;;;;;5022695;28;20190;-67
2021/12/29 06:46:54;;;;;;;31.60;9.60;;;;;;;;;;5013698;28;20684;-67
2021/12/29 06:49:21;;;;;;;25.90;9.20;;;;;;;;;;5022619;28;20237;-68
2021/12/29 06:51:46;;;;;;;27.40;9.30;;;;;;;;;;5009734;28;20221;-67
2021/12/29 06:54:11;;;;;;;31.03;9.77;;;;;;;;;;5022032;28;20194;-67
2021/12/29 06:56:37;;;;;;;28.53;9.37;;;;;;;;;;5015913;28;20201;-67
2021/12/29 06:59:02;;;;;;;33.77;9.70;;;;;;;;;;5013674;28;20634;-67
2021/12/29 07:01:27;;;;;;;22.63;9.87;;;;;;;;;;5021508;28;20183;-68
2021/12/29 07:03:53;;;;;;;30.43;9.30;;;;;;;;;;5013555;28;20249;-68
2021/12/29 07:06:18;;;;;;;31.83;9.60;;;;;;;;;;5027359;28;20232;-68
2021/12/29 07:08:43;;;;;;;22.97;9.47;;;;;;;;;;5013186;28;20183;-68
2021/12/29 07:11:09;;;;;;;38.87;11.10;;;;;;;;;;5025102;28;20645;-68
2021/12/29 07:13:34;;;;;;;33.03;9.87;;;;;;;;;;5014026;28;20191;-68
2021/12/29 07:15:59;;;;;;;39.10;10.80;;;;;;;;;;5020780;28;20669;-68
2021/12/29 07:18:25;;;;;;;30.60;9.73;;;;;;;;;;5015368;28;20255;-68
2021/12/29 07:20:50;;;;;;;30.00;10.30;;;;;;;;;;5015385;28;20182;-68
2021/12/29 07:23:15;;;;;;;36.20;10.33;;;;;;;;;;5012905;28;20822;-68
2021/12/29 07:25:41;;;;;;;35.60;10.63;;;;;;;;;;5010938;28;20182;-68
2021/12/29 07:28:06;;;;;;;32.57;9.40;;;;;;;;;;5017561;28;20646;-68
2021/12/29 07:30:32;;;;;;;32.87;11.07;;;;;;;;;;5006494;28;20243;-68
2021/12/29 07:32:57;;;;;;;35.93;10.33;;;;;;;;;;5019724;28;20183;-68
2021/12/29 07:35:22;;;;;;;43.27;10.40;;;;;;;;;;5010249;28;20254;-68
2021/12/29 07:37:48;;;;;;;32.20;10.93;;;;;;;;;;5019847;28;20194;-68
2021/12/29 07:40:13;;;;;;;34.07;10.27;;;;;;;;;;5013069;28;20535;-68
2021/12/29 07:42:40;;;;;;;24.87;9.57;;;;;;;;;;5016153;28;20178;-68
2021/12/29 07:45:08;;;;;;;33.67;9.87;;;;;;;;;;5008306;28;20198;-68
2021/12/29 07:47:35;;;;;;;25.33;9.87;;;;;;;;;;5013960;28;20186;-68
2021/12/29 07:50:00;;;;;;;24.10;10.07;;;;;;;;;;5007925;28;20197;-68
2021/12/29 07:52:26;;;;;;;31.23;10.90;;;;;;;;;;5018686;28;20198;-67
2021/12/29 07:54:51;;;;;;;29.23;9.77;;;;;;;;;;5006199;28;20194;-67
2021/12/29 07:57:16;;;;;;;32.63;9.90;;;;;;;;;;5011895;28;20209;-67
2021/12/29 07:59:42;;;;;;;22.57;9.80;;;;;;;;;;5020198;28;20186;-67
2021/12/29 08:02:14;;;;;;;29.70;10.30;;;;;;;;;;5009352;28;20388;-67
2021/12/29 08:04:39;;;;;;;27.65;9.55;;;;;;;;;;5018656;28;20772;-68
2021/12/29 08:07:05;;;;;;;28.83;10.37;;;;;;;;;;5003528;28;20273;-67
2021/12/29 08:09:30;;;;;;;29.07;10.00;;;;;;;;;;5019191;28;20213;-67
2021/12/29 08:11:55;;;;;;;28.57;10.73;;;;;;;;;;5007675;28;20218;-67
2021/12/29 08:14:21;;;;;;;29.03;11.30;;;;;;;;;;5021795;28;20198;-67
2021/12/29 08:16:46;;;;;;;31.23;11.20;;;;;;;;;;5014226;28;20186;-67
2021/12/29 08:19:11;;;;;;;30.43;11.13;;;;;;;;;;5021728;28;20186;-67
2021/12/29 08:21:37;;;;;;;33.20;9.77;;;;;;;;;;4317612;28;10000865;-68
2021/12/29 08:24:02;;;;;;;23.37;10.80;;;;;;;;;;5019583;28;20551;-68
2021/12/29 08:26:28;;;;;;;26.77;10.13;;;;;;;;;;5003642;28;20186;-68
2021/12/29 08:28:57;;;;;;;29.73;10.93;;;;;;;;;;5017336;28;20221;-68
2021/12/29 08:31:22;;;;;;;29.20;11.90;;;;;;;;;;5012605;28;20301;-68
2021/12/29 08:33:47;;;;;;;26.93;10.90;;;;;;;;;;5018257;28;20285;-68
2021/12/29 08:36:13;;;;;;;28.77;11.87;;;;;;;;;;5021330;28;20255;-68
2021/12/29 08:38:38;;;;;;;29.00;12.20;;;;;;;;;;5005785;28;20198;-69
2021/12/29 08:41:04;;;;;;;25.77;11.63;;;;;;;;;;5018744;28;20649;-69
2021/12/29 08:43:31;;;;;;;34.47;12.70;;;;;;;;;;5007443;28;20198;-68
2021/12/29 08:45:56;;;;;;;29.57;11.57;;;;;;;;;;5018697;28;20198;-68
2021/12/29 08:48:22;;;;;;;30.37;12.03;;;;;;;;;;5010507;28;20201;-68
2021/12/29 08:50:47;;;;;;;31.00;12.80;;;;;;;;;;5017455;28;20222;-68
2021/12/29 08:53:13;;;;;;;35.00;13.50;;;;;;;;;;5008617;28;20197;-68
2021/12/29 08:55:46;;;;;;;27.23;12.87;;;;;;;;;;5016264;28;20185;-68
2021/12/29 08:58:12;;;;;;;34.60;12.97;;;;;;;;;;5011350;28;20197;-68
2021/12/29 09:00:37;;;;;;;29.47;12.73;;;;;;;;;;5021747;28;20183;-68
2021/12/29 09:03:03;;;;;;;31.50;12.97;;;;;;;;;;5009579;28;20677;-68
2021/12/29 09:05:28;;;;;;;28.40;12.27;;;;;;;;;;5019107;28;20488;-68
2021/12/29 09:07:53;;;;;;;29.77;13.33;;;;;;;;;;5018652;28;20182;-68
2021/12/29 09:10:20;;;;;;;32.77;13.67;;;;;;;;;;5014207;28;20186;-68
2021/12/29 09:12:48;;;;;;;30.93;12.37;;;;;;;;;;5017949;28;20670;-68
2021/12/29 09:15:14;;;;;;;30.50;12.70;;;;;;;;;;5009107;28;20585;-68
2021/12/29 09:17:39;;;;;;;26.93;12.30;;;;;;;;;;5016495;28;20182;-68
2021/12/29 09:20:13;;;;;;;31.70;12.97;;;;;;;;;;5007065;28;20189;-68
2021/12/29 09:22:38;;;;;;;32.20;12.73;;;;;;;;;;5019794;28;20179;-67
2021/12/29 09:25:04;;;;;;;28.47;13.23;;;;;;;;;;5008883;28;20190;-67
2021/12/29 09:27:29;;;;;;;25.53;12.87;;;;;;;;;;5015863;28;20344;-67
2021/12/29 09:29:55;;;;;;;29.93;13.03;;;;;;;;;;5007126;28;20186;-67
2021/12/29 09:32:21;;;;;;;22.53;11.87;;;;;;;;;;5006884;28;21376;-67
2021/12/29 09:34:46;;;;;;;29.40;12.20;;;;;;;;;;5006090;28;20717;-67
2021/12/29 09:37:12;;;;;;;23.67;11.67;;;;;;;;;;5011077;28;20265;-67
2021/12/29 09:39:37;;;;;;;24.50;11.50;;;;;;;;;;5015293;28;20185;-67
2021/12/29 09:42:03;;;;;;;27.90;12.15;;;;;;;;;;5008640;28;20190;-67
2021/12/29 09:44:31;;;;;;;32.40;12.80;;;;;;;;;;5012890;28;20607;-67
2021/12/29 09:46:57;;;;;;;22.87;11.53;;;;;;;;;;5007096;28;20221;-67
2021/12/29 09:49:22;;;;;;;23.47;11.13;;;;;;;;;;5018799;28;20210;-67
2021/12/29 09:51:49;;;;;;;28.95;11.50;;;;;;;;;;5008871;28;20308;-67
2021/12/29 09:54:14;;;;;;;21.47;11.27;;;;;;;;;;5021684;28;20524;-67
2021/12/29 09:56:40;;;;;;;23.60;11.37;;;;;;;;;;5010429;28;20190;-68
2021/12/29 09:59:05;;;;;;;26.60;11.23;;;;;;;;;;5016997;28;20232;-68
2021/12/29 10:01:31;;;;;;;22.93;11.03;;;;;;;;;;5011520;28;20609;-68
2021/12/29 10:03:56;;;;;;;29.30;11.73;;;;;;;;;;5018366;28;20210;-68
2021/12/29 10:06:22;;;;;;;28.70;12.83;;;;;;;;;;5010967;28;20186;-68
2021/12/29 10:08:48;;;;;;;27.93;11.43;;;;;;;;;;5017722;28;20188;-68
2021/12/29 10:11:29;;;;;;;23.63;11.73;;;;;;;;;;5024540;28;20202;-68
2021/12/29 10:13:56;;;;;;;30.07;12.20;;;;;;;;;;5019291;28;20177;-68
2021/12/29 10:16:28;;;;;;;27.60;12.37;;;;;;;;;;5017429;28;20186;-68
2021/12/29 10:19:23;;;;;;;25.00;10.60;;;;;;;;;;5005307;28;20281;-68
2021/12/29 10:21:49;;;;;;;23.03;11.53;;;;;;;;;;5015025;28;20380;-68
2021/12/29 10:24:19;;;;;;;22.30;11.37;;;;;;;;;;5013679;28;20757;-68
2021/12/29 10:26:47;;;;;;;25.40;11.00;;;;;;;;;;5023456;28;20259;-68
2021/12/29 10:29:18;;;;;;;28.40;11.23;;;;;;;;;;5008407;28;20716;-68
2021/12/29 10:31:49;;;;;;;23.70;11.80;;;;;;;;;;5023630;28;20708;-68
2021/12/29 10:34:21;;;;;;;26.50;11.50;;;;;;;;;;5017730;28;20192;-68
2021/12/29 10:36:55;;;;;;;24.98;11.00;;;;;;;;;;5015370;28;20170;-68
2021/12/29 10:39:31;;;;;;;23.65;11.13;;;;;;;;;;5011993;28;20186;-68
2021/12/29 10:42:09;;;;;;;21.35;11.23;;;;;;;;;;5027323;28;20220;-68
2021/12/29 10:44:49;;;;;;;24.33;11.83;;;;;;;;;;5011873;28;20877;-68
2021/12/29 10:47:21;;;;;;;33.03;12.67;;;;;;;;;;5021380;28;20189;-68
2021/12/29 10:49:58;;;;;;;25.65;13.05;;;;;;;;;;5017403;28;20186;-67
2021/12/29 10:52:45;;;;;;;27.08;12.10;;;;;;;;;;4651184;28;10000504;-67
2021/12/29 10:55:31;;;;;;;23.10;12.60;;;;;;;;;;4990082;28;20281;-67
2021/12/29 10:58:05;;;;;;;24.57;13.00;;;;;;;;;;4998869;28;20198;-67
2021/12/29 11:00:31;;;;;;;26.90;13.13;;;;;;;;;;4991727;28;20194;-67
2021/12/29 11:03:13;;;;;;;25.20;13.00;;;;;;;;;;5000979;28;20690;-67
2021/12/29 11:05:41;;;;;;;29.15;12.82;;;;;;;;;;4995638;28;20258;-67
2021/12/29 11:08:11;;;;;;;27.63;12.53;;;;;;;;;;4999702;28;20198;-67
2021/12/29 11:10:36;;;;;;;25.23;13.05;;;;;;;;;;4991024;28;20187;-67
2021/12/29 11:13:03;;;;;;;27.30;12.77;;;;;;;;;;4996870;28;20211;-67
2021/12/29 11:15:33;;;;;;;25.95;13.13;;;;;;;;;;4994246;28;20198;-67
2021/12/29 11:18:06;;;;;;;25.43;11.97;;;;;;;;;;4998791;28;20206;-67
2021/12/29 11:20:32;;;;;;;30.33;12.53;;;;;;;;;;4985519;28;20183;-67
2021/12/29 11:23:20;;;;;;;30.57;12.27;;;;;;;;;;4998833;28;20751;-67
2021/12/29 11:25:46;;;;;;;29.00;12.45;;;;;;;;;;4995792;28;20503;-68
2021/12/29 11:28:25;;;;;;;26.38;13.75;;;;;;;;;;5002781;28;20193;-67
2021/12/29 11:30:51;;;;;;;21.70;11.53;;;;;;;;;;4995436;28;20631;-67
2021/12/29 11:33:17;;;;;;;24.27;11.50;;;;;;;;;;4999902;28;20179;-67
2021/12/29 11:35:50;;;;;;;22.47;11.30;;;;;;;;;;4992965;28;20190;-67
2021/12/29 11:38:17;;;;;;;29.50;12.77;;;;;;;;;;4995591;28;20167;-67
2021/12/29 11:40:46;;;;;;;23.17;11.55;;;;;;;;;;4996112;28;20190;-67
2021/12/29 11:43:14;;;;;;;22.75;11.50;;;;;;;;;;4987816;28;20192;-67
2021/12/29 11:45:41;;;;;;;26.83;12.05;;;;;;;;;;4997259;28;20191;-67
2021/12/29 11:48:08;;;;;;;24.83;11.50;;;;;;;;;;4981127;28;20184;-67
2021/12/29 11:50:36;;;;;;;21.95;11.38;;;;;;;;;;5005103;28;20266;-67
2021/12/29 11:53:07;;;;;;;25.58;11.15;;;;;;;;;;5010125;28;20217;-67
2021/12/29 11:55:40;;;;;;;20.42;11.02;;;;;;;;;;5020304;28;20253;-67
2021/12/29 11:58:18;;;;;;;23.67;11.80;;;;;;;;;;5017726;28;20189;-67
2021/12/29 12:00:59;;;;;;;26.95;11.25;;;;;;;;;;5021750;28;20182;-67
2021/12/29 12:03:24;;;;;;;21.27;11.18;;;;;;;;;;5012198;28;20213;-67
2021/12/29 12:05:50;;;;;;;20.77;11.20;;;;;;;;;;5013832;28;20550;-67
2021/12/29 12:08:23;;;;;;;24.33;11.98;;;;;;;;;;5016965;28;20194;-67
2021/12/29 12:10:50;;;;;;;24.40;11.32;;;;;;;;;;5019996;28;20221;-67
2021/12/29 12:13:31;;;;;;;29.08;13.07;;;;;;;;;;5010430;28;20260;-67
2021/12/29 12:16:09;;;;;;;21.33;10.82;;;;;;;;;;5017002;28;20189;-67
2021/12/29 12:18:52;;;;;;;21.60;12.15;;;;;;;;;;5008611;28;20203;-67
2021/12/29 12:21:41;;;;;;;22.85;12.07;;;;;;;;;;5021561;28;20269;-67
2021/12/29 12:24:17;;;;;;;21.23;12.27;;;;;;;;;;5009410;28;20708;-67
2021/12/29 12:26:53;;;;;;;28.55;13.10;;;;;;;;;;5024452;28;20182;-67
2021/12/29 12:29:19;;;;;;;22.55;12.63;;;;;;;;;;5012752;28;20235;-67
2021/12/29 12:31:58;;;;;;;28.42;13.77;;;;;;;;;;5018570;28;20222;-67
2021/12/29 12:34:24;;;;;;;29.90;13.60;;;;;;;;;;5015190;28;20185;-67
2021/12/29 12:36:49;;;;;;;27.35;14.48;;;;;;;;;;5024478;28;20270;-67
2021/12/29 12:39:18;;;;;;;27.08;13.88;;;;;;;;;;5011555;28;20225;-68
2021/12/29 12:41:49;;;;;;;21.73;13.30;;;;;;;;;;5027312;28;20177;-67
2021/12/29 12:44:17;;;;;;;30.02;15.57;;;;;;;;;;5014048;28;20210;-69
2021/12/29 12:46:48;;;;;;;28.80;15.23;;;;;;;;;;5023551;28;20725;-67
2021/12/29 12:49:15;;;;;;;26.40;15.30;;;;;;;;;;5022695;28;20192;-67
2021/12/29 12:51:41;;;;;;;35.88;17.08;;;;;;;;;;5017300;28;20280;-67
2021/12/29 12:54:21;;;;;;;26.23;16.88;;;;;;;;;;5018827;28;20183;-67
2021/12/29 12:56:48;;;;;;;26.35;15.80;;;;;;;;;;5012990;28;20178;-67
2021/12/29 12:59:15;;;;;;;21.23;14.07;;;;;;;;;;5015563;28;20194;-67
2021/12/29 13:01:47;;;;;;;29.05;15.85;;;;;;;;;;5007468;28;20289;-67
2021/12/29 13:04:15;;;;;;;24.73;16.58;;;;;;;;;;5016529;28;20641;-67
2021/12/29 13:06:43;;;;;;;28.92;17.20;;;;;;;;;;5009328;28;21528;-68
2021/12/29 13:09:10;;;;;;;31.42;16.52;;;;;;;;;;5017886;28;20186;-68
2021/12/29 13:11:39;;;;;;;32.38;17.83;;;;;;;;;;5008980;28;20294;-68
2021/12/29 13:14:08;;;;;;;29.33;17.58;;;;;;;;;;5015666;28;20203;-67
2021/12/29 13:16:34;;;;;;;34.55;18.70;;;;;;;;;;5007986;28;20353;-68
2021/12/29 13:19:00;;;;;;;33.60;19.65;;;;;;;;;;5016332;28;20249;-67
2021/12/29 13:21:30;;;;;;;27.67;18.15;;;;;;;;;;5008553;28;20220;-67
2021/12/29 13:24:00;;;;;;;31.85;19.60;;;;;;;;;;5016072;28;20243;-67
2021/12/29 13:26:31;;;;;;;37.35;19.40;;;;;;;;;;5010212;28;20208;-67
2021/12/29 13:28:56;;;;;;;36.83;19.48;;;;;;;;;;5016742;28;20187;-67
2021/12/29 13:31:23;;;;;;;27.25;17.42;;;;;;;;;;5015378;28;20210;-67
2021/12/29 13:33:51;;;;;;;33.28;18.13;;;;;;;;;;5007500;28;20186;-67
2021/12/29 13:36:18;;;;;;;30.13;18.60;;;;;;;;;;5015529;28;20768;-67
2021/12/29 13:38:44;;;;;;;31.88;19.08;;;;;;;;;;5006070;28;20602;-67
2021/12/29 13:41:13;;;;;;;28.98;17.67;;;;;;;;;;5014581;28;20178;-67
2021/12/29 13:43:47;;;;;;;34.42;18.83;;;;;;;;;;5008961;28;20203;-67
2021/12/29 13:46:15;;;;;;;31.30;18.00;;;;;;;;;;5012805;28;20558;-67
2021/12/29 13:48:45;;;;;;;27.58;18.10;;;;;;;;;;5007377;28;20275;-67
2021/12/29 13:51:15;;;;;;;32.75;19.17;;;;;;;;;;5016838;28;20271;-66
2021/12/29 13:53:50;;;;;;;34.40;18.77;;;;;;;;;;5008181;28;20236;-67
2021/12/29 13:56:19;;;;;;;32.33;19.40;;;;;;;;;;5015250;28;20666;-66
2021/12/29 13:58:59;;;;;;;26.55;17.95;;;;;;;;;;5004450;28;20621;-66
2021/12/29 14:01:29;;;;;;;33.58;18.25;;;;;;;;;;5014549;28;20181;-69
2021/12/29 14:03:56;;;;;;;30.48;17.73;;;;;;;;;;5005680;28;20206;-66
2021/12/29 14:06:21;;;;;;;32.00;18.27;;;;;;;;;;5017284;28;20272;-66
2021/12/29 14:08:47;;;;;;;33.42;18.02;;;;;;;;;;5006676;28;20233;-66
2021/12/29 14:11:13;;;;;;;29.45;17.33;;;;;;;;;;5016998;28;20620;-67
2021/12/29 14:13:44;;;;;;;26.30;17.02;;;;;;;;;;5015909;28;20194;-67
2021/12/29 14:16:15;;;;;;;28.30;17.10;;;;;;;;;;5005164;28;20641;-67
2021/12/29 14:18:56;;;;;;;28.75;18.13;;;;;;;;;;5014928;28;20178;-67
2021/12/29 14:21:29;;;;;;;29.48;17.05;;;;;;;;;;5005879;28;20565;-67
2021/12/29 14:23:59;;;;;;;25.65;17.10;;;;;;;;;;5013754;28;20508;-67
2021/12/29 14:26:27;;;;;;;29.10;16.75;;;;;;;;;;5006400;28;20182;-67
2021/12/29 14:28:57;;;;;;;25.60;16.33;;;;;;;;;;5014876;28;20233;-68